Bookmark and Share
Track history (hours):
 

Pretty Hana

Last reported at 2014-Apr-08 15:33 UTC. Time now 2014-Apr-18 00:15 UTC.
Position N 34°55' E 139°24'.
Warning: this ship's position is 9 days out of date.

Length 65 m; draft 4.5 m.

Type: Tanker. MMSI: 441600000.

NotesDate/timePositionNaut miles runAvg speedWind from/ knotsBaromVisibWave heightAir tempDewpointWater temp
2014-Apr-08 15:33N 34°55' E 139°24'1010.5
2014-Apr-08 14:33N 35°02' E 139°34'1010.3
2014-Apr-08 13:33N 35°09' E 139°43'9 9.2
2014-Apr-08 12:33N 35°18' E 139°44'9 8.5
2014-Apr-08 11:33N 35°26' E 139°46'10 9.8
2014-Apr-08 10:33N 35°31' E 139°56'6 6.2
2014-Apr-08 09:33N 35°32' E 140°04'0 0.0
2014-Apr-08 08:30N 35°32' E 140°04'0 0.0
2014-Apr-08 07:30N 35°32' E 140°04'0 0.0
2014-Apr-08 06:33N 35°32' E 140°04'0 0.0
2014-Apr-08 05:33N 35°32' E 140°04'0 0.0
2014-Apr-08 04:30N 35°32' E 140°04'0 0.0
2014-Apr-08 03:33N 35°32' E 140°04'0 0.0
2014-Apr-08 02:33N 35°32' E 140°04'0 0.0
2014-Apr-08 01:24N 35°32' E 140°04'0 0.0
2014-Apr-08 00:30N 35°32' E 140°04'0 0.0
2014-Apr-07 23:33N 35°32' E 140°04'0 0.0
2014-Apr-07 22:33N 35°32' E 140°04'2 1.7
2014-Apr-07 21:30N 35°33' E 140°02'0 0.1
2014-Apr-07 20:33N 35°33' E 140°02'0 0.0
2014-Apr-07 19:30N 35°33' E 140°02'0 0.0
2014-Apr-07 17:30N 35°33' E 140°02'0 0.0
2014-Apr-07 16:33N 35°33' E 140°02'0 0.0
2014-Apr-07 15:30N 35°33' E 140°02'0 0.0
2014-Apr-07 14:33N 35°33' E 140°02'0 0.1
2014-Apr-07 13:33N 35°33' E 140°02'0 0.0
2014-Apr-07 12:30N 35°33' E 140°02'0 0.0
2014-Apr-07 11:30N 35°33' E 140°02'0 0.0
2014-Apr-07 10:33N 35°33' E 140°02'0 0.0
2014-Apr-07 09:33N 35°33' E 140°02'0 0.0
2014-Apr-07 08:33N 35°33' E 140°02'0 0.0
2014-Apr-07 07:30N 35°33' E 140°02'0 0.0
2014-Apr-07 06:33N 35°33' E 140°02'0 0.1
2014-Apr-07 05:33N 35°33' E 140°02'0 0.0
2014-Apr-07 04:30N 35°33' E 140°02'0 0.0
2014-Apr-07 03:33N 35°33' E 140°02'0 0.0
2014-Apr-07 02:33N 35°33' E 140°02'0 0.0
2014-Apr-07 01:24N 35°33' E 140°02'0 0.0
2014-Apr-07 00:33N 35°33' E 140°02'0 0.0
2014-Apr-06 23:33N 35°33' E 140°02'0 0.0
2014-Apr-06 22:30N 35°33' E 140°02'0 0.0
2014-Apr-06 21:24N 35°33' E 140°02'0 0.0
2014-Apr-06 20:30N 35°33' E 140°02'0 0.0
2014-Apr-06 19:33N 35°33' E 140°02'0 0.0
2014-Apr-06 18:24N 35°33' E 140°02'0 0.0
2014-Apr-06 17:30N 35°33' E 140°02'0 0.0
2014-Apr-06 16:30N 35°33' E 140°02'0 0.0
2014-Apr-06 15:27N 35°33' E 140°02'0 0.0
2014-Apr-06 14:27N 35°33' E 140°02'0 0.0
2014-Apr-06 13:33N 35°33' E 140°02'0 0.0
2014-Apr-06 12:33N 35°33' E 140°02'0 0.0
2014-Apr-06 11:33N 35°33' E 140°02'0 0.1
2014-Apr-06 10:33N 35°33' E 140°02'0 0.0
2014-Apr-06 09:33N 35°33' E 140°02'0 0.0
2014-Apr-06 08:33N 35°33' E 140°02'0 0.1
2014-Apr-06 07:33N 35°33' E 140°02'0 0.0
2014-Apr-06 06:33N 35°33' E 140°02'0 0.1
2014-Apr-06 05:33N 35°33' E 140°02'0 0.0
2014-Apr-06 04:33N 35°33' E 140°02'0 0.0
2014-Apr-06 03:33N 35°33' E 140°02'0 0.0
2014-Apr-06 02:30N 35°33' E 140°02'0 0.0
2014-Apr-06 01:24N 35°33' E 140°02'0 0.0
2014-Apr-06 00:33N 35°33' E 140°02'0 0.0
2014-Apr-05 23:33N 35°33' E 140°02'0 0.0
2014-Apr-05 22:24N 35°33' E 140°02'0 0.0
2014-Apr-05 21:33N 35°33' E 140°02'0 0.0
2014-Apr-05 20:33N 35°33' E 140°02'0 0.0
2014-Apr-05 19:33N 35°33' E 140°02'0 0.0
2014-Apr-05 18:30N 35°33' E 140°02'0 0.1
2014-Apr-05 17:33N 35°33' E 140°02'0 0.0
2014-Apr-05 16:33N 35°33' E 140°02'0 0.0
2014-Apr-05 15:33N 35°33' E 140°02'0 0.0
2014-Apr-05 14:33N 35°33' E 140°02'0 0.0
2014-Apr-05 13:30N 35°33' E 140°02'0 0.0
2014-Apr-05 12:30N 35°33' E 140°02'0 0.0
2014-Apr-05 11:30N 35°33' E 140°02'0 0.1
2014-Apr-05 10:33N 35°33' E 140°02'0 0.0
2014-Apr-05 09:33N 35°33' E 140°02'0 0.0
2014-Apr-05 08:18N 35°33' E 140°02'0 0.0
2014-Apr-05 07:30N 35°33' E 140°02'0 0.1
2014-Apr-05 06:30N 35°33' E 140°02'0 0.0
2014-Apr-05 05:33N 35°33' E 140°02'0 0.0
2014-Apr-05 04:33N 35°33' E 140°02'0 0.0
2014-Apr-05 03:33N 35°33' E 140°02'2 1.6
2014-Apr-05 02:33N 35°32' E 140°00'10 9.6
2014-Apr-05 01:33N 35°27' E 139°50'10 9.7
2014-Apr-05 00:33N 35°19' E 139°44'9 9.2
2014-Apr-04 23:33N 35°10' E 139°46'9 8.9
2014-Apr-04 22:33N 35°03' E 139°41'9 9.1
2014-Apr-04 21:32N 34°57' E 139°32'  
2014-Mar-30 08:23N 35°05' E 129°06'2 1.9
2014-Mar-30 07:33N 35°06' E 129°05'0 0.0
2014-Mar-30 06:27N 35°06' E 129°05'0 0.1
2014-Mar-30 05:33N 35°06' E 129°05'0 0.1
2014-Mar-30 04:33N 35°06' E 129°05'0 0.0
2014-Mar-30 03:27N 35°06' E 129°05'2 1.6
2014-Mar-30 02:04N 35°04' E 129°04'  

Dump ship's entire track history

sailing weather and tide predictions

Pretty Hana — DSQJ5 — position and weather